METAR AND TAF INFORMATION

METAR FOR OBBI
ADDS - METARS form results

(1612 UTC 21 November 2019)
Data provider http://aviationweather.gov/metar/data/
 
METAR text: OBBI 211600Z 29012KT CAVOK 21/11 Q1018 NOSIG
Conditions at: OBBI (BAHRAIN INTL ARP, BH) observed 1600 UTC 21 November 2019
Temperature: 21.0°C (70°F)
Dewpoint: 11.0°C (52°F) [RH = 53%]
Pressure (altimeter): 30.06 inches Hg (1018.0 mb)
Winds: from the WNW (290 degrees) at 14 MPH (12 knots; 6.2 m/s)
Visibility: 6 or more miles (10+ km)
Ceiling: ceiling and visibility are OK
Clouds: unknown
Weather: no significant weather observed at this time

METAR text: OBBI 211530Z 30015KT CAVOK 21/12 Q1018 NOSIG
Conditions at: OBBI (BAHRAIN INTL ARP, BH) observed 1530 UTC 21 November 2019
Temperature: 21.0°C (70°F)
Dewpoint: 12.0°C (54°F) [RH = 56%]
Pressure (altimeter): 30.06 inches Hg (1018.0 mb)
Winds: from the WNW (300 degrees) at 17 MPH (15 knots; 7.7 m/s)
Visibility: 6 or more miles (10+ km)
Ceiling: ceiling and visibility are OK
Clouds: unknown
Weather: no significant weather observed at this time

Forecast for: OBBI (BAHRAIN INTL ARP, BH)
Text: TAF OBBI 211100Z 2112/2218 33018G28KT 9999 FEW030
Forecast period: 1200 to 1600 UTC 21 November 2019
Forecast type: FROM: standard forecast or significant change
Winds: from the NNW (330 degrees) at 21 MPH (18 knots; 9.3 m/s)
gusting to 32 MPH (28 knots; 14.4 m/s)
Visibility: 6 or more miles 10+ km)
Ceiling: at least 12,000 feet AGL
Clouds: few clouds at 3000 feet AGL
Weather: no significant weather forecast for this period
Text: BECMG 2116/2118 33012KT
Forecast period: 1600 UTC 21 November 2019 to 1800 UTC 22 November 2019
Forecast type: BECOMING: Conditions expected to become as follows by 1800 UTC 21 November 2019
Winds: from the NNW (330 degrees) at 14 MPH (12 knots; 6.2 m/s)
Visibility: 6 or more miles 10+ km)
Ceiling: at least 12,000 feet AGL
Clouds: few clouds at 3000 feet AGL
Weather: no significant weather forecast for this period

 AIRPORT MAP

 RUNWAY INFORMATION

Runway 12L Runway length 12979 ft Runway width 197 ft
Runway elevation 6 ft Runway displaced threshold 1000 ft Runway heading 123
Runway 30R Runway length 12979 ft Runway width 197 ft
Runway elevation 6 ft Runway displaced threshold 1000 ft Runway heading 303
Runway 12R Runway length 8302 ft Runway width 148 ft
Runway elevation 7 ft Runway displaced threshold 1000 ft Runway heading 123
Runway 30L Runway length 8302 ft Runway width 148 ft
Runway elevation 6 ft Runway displaced threshold 395 ft Runway heading 303

 AIRPORT FREQUENCIES

Type APP Name APP Frequency 127.85 MHZ
Type ATIS Name ATIS Frequency 127.2 MHZ
Type GND Name GND Frequency 121.675 MHZ
Type OPS Name ATOC Frequency 32.175 MHZ
Type TWR Name TWR Frequency 118.5 MHZ

 AIRPORT NEAR NAVIGATION AIDS

Type VOR-DME Name Bahrain Frequency 115300 KHZ
Type NDB Name Bahrain Frequency 395 KHZ